KART

Watertown International Airport

Watertown, New York, USA
METAR KART 181956Z AUTO 35006KT 3/4SM UP BR OVC009 00/00 A2984 RMK AO2 RAE25UPB50FZRAB25E50 CIG 008V013 SLP113 P0004 I1002 T00000000
Observed Flight Rules
Dec-18 @ 19:56 UTC (27 minutes ago) Instrument Flight Rules
Wind Visibility Clouds Conditions
350° at 6 knots 3/4 miles
  • Overcast at 900' AGL
  • Mist
  • Unknown precipitation
Temperatures Readings Precipitation
Current 0°C / 32°F
Dewpoint 0°C / 32°F
Humidity 100%
Altimeter 29.84" Hg
Pressure 1011.3 hPa
Elevation 100
Current Rain 0.04
METAR KART 181956Z AUTO 35006KT 3/4SM UP BR OVC009 00/00 A2984 RMK AO2 RAE25UPB50FZRAB25E50 CIG 008V013 SLP113 P0004 I1002 T00000000
Observed Flight Rules
Dec-18 @ 19:56 UTC
(27 minutes ago)
LIFR
Wind Visibility
350° at 6 knots 3/4 miles
Clouds
  • Overcast at 900' AGL
Conditions
  • Mist
  • Unknown precipitation
Temperature Dewpoint
0°C / 32°F 0°C / 32°F
Humidity Altimeter Pressure
100% 29.84" Hg 1011.3 hPa
Current Rain
0.04